sensor_id;sensor_type;location;lat;lon;timestamp;temperature;humidity
3678;DHT22;1855;50.934;6.958;2023-05-07T00:02:04;14.70;99.90
3678;DHT22;1855;50.934;6.958;2023-05-07T00:04:30;14.70;99.90
3678;DHT22;1855;50.934;6.958;2023-05-07T00:07:01;14.80;99.90
3678;DHT22;1855;50.934;6.958;2023-05-07T00:09:28;14.80;99.90
3678;DHT22;1855;50.934;6.958;2023-05-07T00:11:55;14.70;99.90
3678;DHT22;1855;50.934;6.958;2023-05-07T00:14:23;14.70;99.90
3678;DHT22;1855;50.934;6.958;2023-05-07T00:16:50;14.80;99.90
3678;DHT22;1855;50.934;6.958;2023-05-07T00:19:17;14.70;99.90
3678;DHT22;1855;50.934;6.958;2023-05-07T00:21:43;14.70;99.90
3678;DHT22;1855;50.934;6.958;2023-05-07T00:24:10;14.70;99.90
3678;DHT22;1855;50.934;6.958;2023-05-07T00:26:37;14.70;99.90
3678;DHT22;1855;50.934;6.958;2023-05-07T00:29:04;14.70;99.90
3678;DHT22;1855;50.934;6.958;2023-05-07T00:31:32;14.70;99.90
3678;DHT22;1855;50.934;6.958;2023-05-07T00:33:58;14.70;99.90
3678;DHT22;1855;50.934;6.958;2023-05-07T00:36:25;14.70;99.90
3678;DHT22;1855;50.934;6.958;2023-05-07T00:38:53;14.70;99.90
3678;DHT22;1855;50.934;6.958;2023-05-07T00:41:20;14.60;99.90
3678;DHT22;1855;50.934;6.958;2023-05-07T00:43:48;14.60;99.90
3678;DHT22;1855;50.934;6.958;2023-05-07T00:46:17;14.60;99.90
3678;DHT22;1855;50.934;6.958;2023-05-07T00:48:45;14.60;99.90
3678;DHT22;1855;50.934;6.958;2023-05-07T00:51:12;14.60;99.90
3678;DHT22;1855;50.934;6.958;2023-05-07T00:53:39;14.60;99.90
3678;DHT22;1855;50.934;6.958;2023-05-07T00:56:06;14.60;99.90
3678;DHT22;1855;50.934;6.958;2023-05-07T00:58:33;14.60;99.90
3678;DHT22;1855;50.934;6.958;2023-05-07T01:01:00;14.50;99.90
3678;DHT22;1855;50.934;6.958;2023-05-07T01:03:27;14.50;99.90
3678;DHT22;1855;50.934;6.958;2023-05-07T01:05:56;14.50;99.90
3678;DHT22;1855;50.934;6.958;2023-05-07T01:08:24;14.50;99.90
3678;DHT22;1855;50.934;6.958;2023-05-07T01:10:54;14.50;99.90
3678;DHT22;1855;50.934;6.958;2023-05-07T01:13:21;14.40;99.90
3678;DHT22;1855;50.934;6.958;2023-05-07T01:15:48;14.50;99.90
3678;DHT22;1855;50.934;6.958;2023-05-07T01:18:14;14.50;99.90
3678;DHT22;1855;50.934;6.958;2023-05-07T01:20:42;14.40;99.90
3678;DHT22;1855;50.934;6.958;2023-05-07T01:23:11;14.40;99.90
3678;DHT22;1855;50.934;6.958;2023-05-07T01:25:37;14.40;99.90
3678;DHT22;1855;50.934;6.958;2023-05-07T01:28:04;14.40;99.90
3678;DHT22;1855;50.934;6.958;2023-05-07T01:30:32;14.40;99.90
3678;DHT22;1855;50.934;6.958;2023-05-07T01:33:02;14.50;99.90
3678;DHT22;1855;50.934;6.958;2023-05-07T01:35:36;14.40;99.90
3678;DHT22;1855;50.934;6.958;2023-05-07T01:38:04;14.40;99.90
3678;DHT22;1855;50.934;6.958;2023-05-07T01:40:33;14.40;99.90
3678;DHT22;1855;50.934;6.958;2023-05-07T01:43:01;14.40;99.90
3678;DHT22;1855;50.934;6.958;2023-05-07T01:45:28;14.40;99.90
3678;DHT22;1855;50.934;6.958;2023-05-07T01:47:55;14.40;99.90
3678;DHT22;1855;50.934;6.958;2023-05-07T01:50:23;14.40;99.90
3678;DHT22;1855;50.934;6.958;2023-05-07T01:52:50;14.40;99.90
3678;DHT22;1855;50.934;6.958;2023-05-07T01:55:17;14.40;99.90
3678;DHT22;1855;50.934;6.958;2023-05-07T01:57:45;14.40;99.90
3678;DHT22;1855;50.934;6.958;2023-05-07T02:00:12;14.40;99.90
3678;DHT22;1855;50.934;6.958;2023-05-07T02:02:39;14.40;99.90
3678;DHT22;1855;50.934;6.958;2023-05-07T02:05:06;14.30;99.90
3678;DHT22;1855;50.934;6.958;2023-05-07T02:07:33;14.30;99.90
3678;DHT22;1855;50.934;6.958;2023-05-07T02:10:00;14.40;99.90
3678;DHT22;1855;50.934;6.958;2023-05-07T02:12:26;14.30;99.90
3678;DHT22;1855;50.934;6.958;2023-05-07T02:14:54;14.30;99.90
3678;DHT22;1855;50.934;6.958;2023-05-07T02:17:21;14.20;99.90
3678;DHT22;1855;50.934;6.958;2023-05-07T02:19:48;14.20;99.90
3678;DHT22;1855;50.934;6.958;2023-05-07T02:22:14;14.20;99.90
3678;DHT22;1855;50.934;6.958;2023-05-07T02:24:41;14.20;99.90
3678;DHT22;1855;50.934;6.958;2023-05-07T02:27:08;14.10;99.90
3678;DHT22;1855;50.934;6.958;2023-05-07T02:29:35;14.10;99.90
3678;DHT22;1855;50.934;6.958;2023-05-07T02:32:03;14.10;99.90
3678;DHT22;1855;50.934;6.958;2023-05-07T02:34:30;14.10;99.90
3678;DHT22;1855;50.934;6.958;2023-05-07T02:36:57;14.10;99.90
3678;DHT22;1855;50.934;6.958;2023-05-07T02:39:23;14.10;99.90
3678;DHT22;1855;50.934;6.958;2023-05-07T02:41:50;14.00;99.90
3678;DHT22;1855;50.934;6.958;2023-05-07T02:44:17;14.00;99.90
3678;DHT22;1855;50.934;6.958;2023-05-07T02:46:43;14.00;99.90
3678;DHT22;1855;50.934;6.958;2023-05-07T02:49:12;14.10;99.90
3678;DHT22;1855;50.934;6.958;2023-05-07T02:51:38;14.10;99.90
3678;DHT22;1855;50.934;6.958;2023-05-07T02:54:05;14.10;99.90
3678;DHT22;1855;50.934;6.958;2023-05-07T02:56:32;14.10;99.90
3678;DHT22;1855;50.934;6.958;2023-05-07T02:58:59;14.10;99.90
3678;DHT22;1855;50.934;6.958;2023-05-07T03:01:25;14.10;99.90
3678;DHT22;1855;50.934;6.958;2023-05-07T03:03:52;14.10;99.90
3678;DHT22;1855;50.934;6.958;2023-05-07T03:06:20;14.10;99.90
3678;DHT22;1855;50.934;6.958;2023-05-07T03:08:47;14.10;99.90
3678;DHT22;1855;50.934;6.958;2023-05-07T03:11:13;14.10;99.90
3678;DHT22;1855;50.934;6.958;2023-05-07T03:13:40;14.10;99.90
3678;DHT22;1855;50.934;6.958;2023-05-07T03:16:07;14.10;99.90
3678;DHT22;1855;50.934;6.958;2023-05-07T03:18:33;14.10;99.90
3678;DHT22;1855;50.934;6.958;2023-05-07T03:21:00;14.10;99.90
3678;DHT22;1855;50.934;6.958;2023-05-07T03:23:28;14.00;99.90
3678;DHT22;1855;50.934;6.958;2023-05-07T03:25:55;14.00;99.90
3678;DHT22;1855;50.934;6.958;2023-05-07T03:28:22;14.00;99.90
3678;DHT22;1855;50.934;6.958;2023-05-07T03:30:48;14.00;99.90
3678;DHT22;1855;50.934;6.958;2023-05-07T03:33:16;13.90;99.90
3678;DHT22;1855;50.934;6.958;2023-05-07T03:35:42;13.90;99.90
3678;DHT22;1855;50.934;6.958;2023-05-07T03:38:09;13.90;99.90
3678;DHT22;1855;50.934;6.958;2023-05-07T03:40:37;13.90;99.90
3678;DHT22;1855;50.934;6.958;2023-05-07T03:43:04;13.90;99.90
3678;DHT22;1855;50.934;6.958;2023-05-07T03:45:31;13.90;99.90
3678;DHT22;1855;50.934;6.958;2023-05-07T03:47:57;13.90;99.90
3678;DHT22;1855;50.934;6.958;2023-05-07T03:50:24;13.90;99.90
3678;DHT22;1855;50.934;6.958;2023-05-07T03:52:51;13.90;99.90
3678;DHT22;1855;50.934;6.958;2023-05-07T03:55:17;13.90;99.90
3678;DHT22;1855;50.934;6.958;2023-05-07T03:57:45;13.90;99.90
3678;DHT22;1855;50.934;6.958;2023-05-07T04:00:13;13.80;99.90
3678;DHT22;1855;50.934;6.958;2023-05-07T04:02:40;13.80;99.90
3678;DHT22;1855;50.934;6.958;2023-05-07T04:05:07;13.80;99.90
3678;DHT22;1855;50.934;6.958;2023-05-07T04:07:34;13.80;99.90
3678;DHT22;1855;50.934;6.958;2023-05-07T04:10:00;13.80;99.90
3678;DHT22;1855;50.934;6.958;2023-05-07T04:12:27;13.90;99.90
3678;DHT22;1855;50.934;6.958;2023-05-07T04:14:55;13.90;99.90
3678;DHT22;1855;50.934;6.958;2023-05-07T04:17:22;13.90;99.90
3678;DHT22;1855;50.934;6.958;2023-05-07T04:19:49;13.90;99.90
3678;DHT22;1855;50.934;6.958;2023-05-07T04:22:15;13.90;99.90
3678;DHT22;1855;50.934;6.958;2023-05-07T04:24:42;14.00;99.90
3678;DHT22;1855;50.934;6.958;2023-05-07T04:27:09;14.00;99.90
3678;DHT22;1855;50.934;6.958;2023-05-07T04:29:36;14.10;99.90
3678;DHT22;1855;50.934;6.958;2023-05-07T04:32:05;14.10;99.90
3678;DHT22;1855;50.934;6.958;2023-05-07T04:34:32;14.10;99.90
3678;DHT22;1855;50.934;6.958;2023-05-07T04:36:59;14.20;99.90
3678;DHT22;1855;50.934;6.958;2023-05-07T04:39:26;14.20;99.90
3678;DHT22;1855;50.934;6.958;2023-05-07T04:41:52;14.20;99.90
3678;DHT22;1855;50.934;6.958;2023-05-07T04:44:19;14.20;99.90
3678;DHT22;1855;50.934;6.958;2023-05-07T04:46:46;14.20;99.90
3678;DHT22;1855;50.934;6.958;2023-05-07T04:49:14;14.30;99.90
3678;DHT22;1855;50.934;6.958;2023-05-07T04:51:41;14.30;99.90
3678;DHT22;1855;50.934;6.958;2023-05-07T04:54:08;14.30;99.90
3678;DHT22;1855;50.934;6.958;2023-05-07T04:56:35;14.30;99.90
3678;DHT22;1855;50.934;6.958;2023-05-07T04:59:02;14.40;99.90
3678;DHT22;1855;50.934;6.958;2023-05-07T05:01:28;14.30;99.90
3678;DHT22;1855;50.934;6.958;2023-05-07T05:03:55;14.40;99.90
3678;DHT22;1855;50.934;6.958;2023-05-07T05:06:23;14.40;99.90
3678;DHT22;1855;50.934;6.958;2023-05-07T05:08:50;14.40;99.90
3678;DHT22;1855;50.934;6.958;2023-05-07T05:11:17;14.40;99.90
3678;DHT22;1855;50.934;6.958;2023-05-07T05:13:43;14.40;99.90
3678;DHT22;1855;50.934;6.958;2023-05-07T05:16:10;14.40;99.90
3678;DHT22;1855;50.934;6.958;2023-05-07T05:18:37;14.40;99.90
3678;DHT22;1855;50.934;6.958;2023-05-07T05:21:03;14.40;99.90
3678;DHT22;1855;50.934;6.958;2023-05-07T05:23:32;14.50;99.90
3678;DHT22;1855;50.934;6.958;2023-05-07T05:25:58;14.50;99.90
3678;DHT22;1855;50.934;6.958;2023-05-07T05:28:25;14.60;99.90
3678;DHT22;1855;50.934;6.958;2023-05-07T05:30:53;14.60;99.90
3678;DHT22;1855;50.934;6.958;2023-05-07T05:33:19;14.60;99.90
3678;DHT22;1855;50.934;6.958;2023-05-07T05:35:46;14.70;99.90
3678;DHT22;1855;50.934;6.958;2023-05-07T05:38:13;14.80;99.90
3678;DHT22;1855;50.934;6.958;2023-05-07T05:40:41;14.80;99.90
3678;DHT22;1855;50.934;6.958;2023-05-07T05:43:08;14.90;99.90
3678;DHT22;1855;50.934;6.958;2023-05-07T05:45:34;14.90;99.90
3678;DHT22;1855;50.934;6.958;2023-05-07T05:48:01;14.90;99.90
3678;DHT22;1855;50.934;6.958;2023-05-07T05:50:28;15.00;99.90
3678;DHT22;1855;50.934;6.958;2023-05-07T05:52:55;15.00;99.90
3678;DHT22;1855;50.934;6.958;2023-05-07T05:55:23;15.10;99.90
3678;DHT22;1855;50.934;6.958;2023-05-07T05:57:51;15.20;99.90
3678;DHT22;1855;50.934;6.958;2023-05-07T06:00:18;15.20;99.90
3678;DHT22;1855;50.934;6.958;2023-05-07T06:02:47;15.20;99.90
3678;DHT22;1855;50.934;6.958;2023-05-07T06:05:14;15.30;99.90
3678;DHT22;1855;50.934;6.958;2023-05-07T06:07:43;15.40;99.90
3678;DHT22;1855;50.934;6.958;2023-05-07T06:10:10;15.40;99.90
3678;DHT22;1855;50.934;6.958;2023-05-07T06:12:37;15.50;99.90
3678;DHT22;1855;50.934;6.958;2023-05-07T06:15:06;15.50;99.90
3678;DHT22;1855;50.934;6.958;2023-05-07T06:17:33;15.60;99.90
3678;DHT22;1855;50.934;6.958;2023-05-07T06:20:00;15.70;99.90
3678;DHT22;1855;50.934;6.958;2023-05-07T06:22:27;15.80;99.90
3678;DHT22;1855;50.934;6.958;2023-05-07T06:24:53;15.90;99.90
3678;DHT22;1855;50.934;6.958;2023-05-07T06:27:20;16.00;99.90
3678;DHT22;1855;50.934;6.958;2023-05-07T06:29:47;16.10;99.90
3678;DHT22;1855;50.934;6.958;2023-05-07T06:32:16;16.10;99.90
3678;DHT22;1855;50.934;6.958;2023-05-07T06:34:43;16.20;99.90
3678;DHT22;1855;50.934;6.958;2023-05-07T06:37:10;16.30;99.70
3678;DHT22;1855;50.934;6.958;2023-05-07T06:39:36;16.40;99.20
3678;DHT22;1855;50.934;6.958;2023-05-07T06:42:03;16.40;98.50
3678;DHT22;1855;50.934;6.958;2023-05-07T06:44:30;16.40;98.20
3678;DHT22;1855;50.934;6.958;2023-05-07T06:46:57;16.40;98.20
3678;DHT22;1855;50.934;6.958;2023-05-07T06:49:25;16.50;98.10
3678;DHT22;1855;50.934;6.958;2023-05-07T06:51:52;16.50;97.90
3678;DHT22;1855;50.934;6.958;2023-05-07T06:54:18;16.50;97.90
3678;DHT22;1855;50.934;6.958;2023-05-07T06:56:45;16.60;97.60
3678;DHT22;1855;50.934;6.958;2023-05-07T06:59:12;16.60;97.70
3678;DHT22;1855;50.934;6.958;2023-05-07T07:01:39;16.70;97.70
3678;DHT22;1855;50.934;6.958;2023-05-07T07:04:05;16.80;97.70
3678;DHT22;1855;50.934;6.958;2023-05-07T07:06:34;16.80;97.40
3678;DHT22;1855;50.934;6.958;2023-05-07T07:09:00;16.90;97.10
3678;DHT22;1855;50.934;6.958;2023-05-07T07:11:27;17.00;97.60
3678;DHT22;1855;50.934;6.958;2023-05-07T07:13:54;17.00;96.60
3678;DHT22;1855;50.934;6.958;2023-05-07T07:16:21;17.00;95.70
3678;DHT22;1855;50.934;6.958;2023-05-07T07:18:47;17.00;96.00
3678;DHT22;1855;50.934;6.958;2023-05-07T07:21:14;17.00;95.30
3678;DHT22;1855;50.934;6.958;2023-05-07T07:23:42;17.00;95.70
3678;DHT22;1855;50.934;6.958;2023-05-07T07:26:09;17.10;95.70
3678;DHT22;1855;50.934;6.958;2023-05-07T07:28:42;17.10;96.10
3678;DHT22;1855;50.934;6.958;2023-05-07T07:31:09;17.20;95.60
3678;DHT22;1855;50.934;6.958;2023-05-07T07:33:35;17.30;95.50
3678;DHT22;1855;50.934;6.958;2023-05-07T07:36:02;17.50;95.20
3678;DHT22;1855;50.934;6.958;2023-05-07T07:38:29;17.50;95.20
3678;DHT22;1855;50.934;6.958;2023-05-07T07:40:57;17.70;94.70
3678;DHT22;1855;50.934;6.958;2023-05-07T07:43:24;17.80;94.10
3678;DHT22;1855;50.934;6.958;2023-05-07T07:45:51;17.90;93.60
3678;DHT22;1855;50.934;6.958;2023-05-07T07:48:17;18.00;93.60
3678;DHT22;1855;50.934;6.958;2023-05-07T07:50:44;18.10;92.90
3678;DHT22;1855;50.934;6.958;2023-05-07T07:53:11;18.20;92.50
3678;DHT22;1855;50.934;6.958;2023-05-07T07:55:38;18.30;92.10
3678;DHT22;1855;50.934;6.958;2023-05-07T07:58:07;18.40;91.20
3678;DHT22;1855;50.934;6.958;2023-05-07T08:00:34;18.50;91.20
3678;DHT22;1855;50.934;6.958;2023-05-07T08:03:01;18.60;90.80
3678;DHT22;1855;50.934;6.958;2023-05-07T08:05:28;18.60;90.70
3678;DHT22;1855;50.934;6.958;2023-05-07T08:07:55;18.60;91.40
3678;DHT22;1855;50.934;6.958;2023-05-07T08:10:22;18.70;90.70
3678;DHT22;1855;50.934;6.958;2023-05-07T08:12:49;18.80;90.90
3678;DHT22;1855;50.934;6.958;2023-05-07T08:15:18;18.90;90.60
3678;DHT22;1855;50.934;6.958;2023-05-07T08:17:45;19.00;90.20
3678;DHT22;1855;50.934;6.958;2023-05-07T08:20:11;19.20;89.50
3678;DHT22;1855;50.934;6.958;2023-05-07T08:22:38;19.20;89.20
3678;DHT22;1855;50.934;6.958;2023-05-07T08:25:06;19.20;87.00
3678;DHT22;1855;50.934;6.958;2023-05-07T08:27:32;19.20;87.80
3678;DHT22;1855;50.934;6.958;2023-05-07T08:29:59;19.30;87.70
3678;DHT22;1855;50.934;6.958;2023-05-07T08:32:27;19.20;87.50
3678;DHT22;1855;50.934;6.958;2023-05-07T08:34:54;19.30;88.00
3678;DHT22;1855;50.934;6.958;2023-05-07T08:37:21;19.40;87.90
3678;DHT22;1855;50.934;6.958;2023-05-07T08:39:47;19.60;87.70
3678;DHT22;1855;50.934;6.958;2023-05-07T08:42:16;19.60;85.60
3678;DHT22;1855;50.934;6.958;2023-05-07T08:44:45;19.70;85.50
3678;DHT22;1855;50.934;6.958;2023-05-07T08:47:12;19.60;86.10
3678;DHT22;1855;50.934;6.958;2023-05-07T08:49:40;19.60;85.70
3678;DHT22;1855;50.934;6.958;2023-05-07T08:52:07;19.70;85.30
3678;DHT22;1855;50.934;6.958;2023-05-07T08:54:34;19.80;85.50
3678;DHT22;1855;50.934;6.958;2023-05-07T08:57:03;20.00;84.40
3678;DHT22;1855;50.934;6.958;2023-05-07T08:59:30;20.20;83.30
3678;DHT22;1855;50.934;6.958;2023-05-07T09:01:57;20.40;81.50
3678;DHT22;1855;50.934;6.958;2023-05-07T09:04:23;20.60;81.10
3678;DHT22;1855;50.934;6.958;2023-05-07T09:06:51;20.80;81.00
3678;DHT22;1855;50.934;6.958;2023-05-07T09:09:18;20.90;79.90
3678;DHT22;1855;50.934;6.958;2023-05-07T09:11:45;21.00;79.10
3678;DHT22;1855;50.934;6.958;2023-05-07T09:14:12;21.00;77.10
3678;DHT22;1855;50.934;6.958;2023-05-07T09:16:39;21.10;78.20
3678;DHT22;1855;50.934;6.958;2023-05-07T09:19:05;21.20;76.70
3678;DHT22;1855;50.934;6.958;2023-05-07T09:21:32;21.20;75.00
3678;DHT22;1855;50.934;6.958;2023-05-07T09:24:00;21.10;75.30
3678;DHT22;1855;50.934;6.958;2023-05-07T09:26:27;21.20;75.40
3678;DHT22;1855;50.934;6.958;2023-05-07T09:28:54;21.30;74.50
3678;DHT22;1855;50.934;6.958;2023-05-07T09:31:20;21.70;73.60
3678;DHT22;1855;50.934;6.958;2023-05-07T09:33:48;22.00;71.80
3678;DHT22;1855;50.934;6.958;2023-05-07T09:36:16;22.20;68.20
3678;DHT22;1855;50.934;6.958;2023-05-07T09:38:42;22.40;67.70
3678;DHT22;1855;50.934;6.958;2023-05-07T09:41:11;22.50;66.60
3678;DHT22;1855;50.934;6.958;2023-05-07T09:43:39;22.50;64.80
3678;DHT22;1855;50.934;6.958;2023-05-07T09:46:07;22.60;64.40
3678;DHT22;1855;50.934;6.958;2023-05-07T09:48:39;22.80;64.20
3678;DHT22;1855;50.934;6.958;2023-05-07T09:51:11;22.90;65.10
3678;DHT22;1855;50.934;6.958;2023-05-07T09:53:40;23.10;63.50
3678;DHT22;1855;50.934;6.958;2023-05-07T09:56:07;23.40;62.70
3678;DHT22;1855;50.934;6.958;2023-05-07T09:58:37;23.70;60.80
3678;DHT22;1855;50.934;6.958;2023-05-07T10:01:05;24.00;60.50
3678;DHT22;1855;50.934;6.958;2023-05-07T10:03:33;24.20;60.50
3678;DHT22;1855;50.934;6.958;2023-05-07T10:06:02;24.40;57.80
3678;DHT22;1855;50.934;6.958;2023-05-07T10:08:30;24.50;56.60
3678;DHT22;1855;50.934;6.958;2023-05-07T10:10:57;24.60;53.30
3678;DHT22;1855;50.934;6.958;2023-05-07T10:13:24;24.50;54.40
3678;DHT22;1855;50.934;6.958;2023-05-07T10:15:52;24.50;55.70
3678;DHT22;1855;50.934;6.958;2023-05-07T10:18:20;24.40;54.80
3678;DHT22;1855;50.934;6.958;2023-05-07T10:20:50;24.50;54.40
3678;DHT22;1855;50.934;6.958;2023-05-07T10:23:23;24.40;54.90
3678;DHT22;1855;50.934;6.958;2023-05-07T10:25:50;24.40;54.20
3678;DHT22;1855;50.934;6.958;2023-05-07T10:28:18;24.40;53.50
3678;DHT22;1855;50.934;6.958;2023-05-07T10:30:55;24.20;54.50
3678;DHT22;1855;50.934;6.958;2023-05-07T10:33:27;24.10;54.10
3678;DHT22;1855;50.934;6.958;2023-05-07T10:35:58;24.10;54.50
3678;DHT22;1855;50.934;6.958;2023-05-07T10:38:26;24.20;54.70
3678;DHT22;1855;50.934;6.958;2023-05-07T10:40:53;24.30;54.10
3678;DHT22;1855;50.934;6.958;2023-05-07T10:43:20;24.60;54.40
3678;DHT22;1855;50.934;6.958;2023-05-07T10:46:13;24.80;53.00
3678;DHT22;1855;50.934;6.958;2023-05-07T10:49:10;24.90;50.50
3678;DHT22;1855;50.934;6.958;2023-05-07T10:51:37;25.10;51.20
3678;DHT22;1855;50.934;6.958;2023-05-07T10:54:23;25.30;50.10
3678;DHT22;1855;50.934;6.958;2023-05-07T10:56:50;25.50;49.50
3678;DHT22;1855;50.934;6.958;2023-05-07T10:59:36;25.70;48.10
3678;DHT22;1855;50.934;6.958;2023-05-07T11:02:10;26.00;48.30
3678;DHT22;1855;50.934;6.958;2023-05-07T11:04:39;26.40;46.90
3678;DHT22;1855;50.934;6.958;2023-05-07T11:07:25;26.70;46.10
3678;DHT22;1855;50.934;6.958;2023-05-07T11:09:56;26.70;45.90
3678;DHT22;1855;50.934;6.958;2023-05-07T11:12:50;26.90;46.20
3678;DHT22;1855;50.934;6.958;2023-05-07T11:15:38;27.00;45.10
3678;DHT22;1855;50.934;6.958;2023-05-07T11:18:08;27.10;43.80
3678;DHT22;1855;50.934;6.958;2023-05-07T11:20:46;27.20;44.00
3678;DHT22;1855;50.934;6.958;2023-05-07T11:26:17;27.40;40.10
3678;DHT22;1855;50.934;6.958;2023-05-07T11:28:44;27.40;40.40
3678;DHT22;1855;50.934;6.958;2023-05-07T11:31:11;27.30;40.20
3678;DHT22;1855;50.934;6.958;2023-05-07T11:33:39;27.20;40.30
3678;DHT22;1855;50.934;6.958;2023-05-07T11:36:08;27.00;40.40
3678;DHT22;1855;50.934;6.958;2023-05-07T11:38:35;26.70;40.90
3678;DHT22;1855;50.934;6.958;2023-05-07T11:41:03;26.30;39.30
3678;DHT22;1855;50.934;6.958;2023-05-07T11:43:30;25.90;39.20
3678;DHT22;1855;50.934;6.958;2023-05-07T11:46:05;25.70;40.80
3678;DHT22;1855;50.934;6.958;2023-05-07T11:48:32;25.60;42.00
3678;DHT22;1855;50.934;6.958;2023-05-07T11:51:02;25.40;43.00
3678;DHT22;1855;50.934;6.958;2023-05-07T11:53:36;25.10;42.10
3678;DHT22;1855;50.934;6.958;2023-05-07T11:56:06;24.90;42.00
3678;DHT22;1855;50.934;6.958;2023-05-07T11:58:33;24.60;43.30
3678;DHT22;1855;50.934;6.958;2023-05-07T12:01:00;24.40;44.90
3678;DHT22;1855;50.934;6.958;2023-05-07T12:03:27;24.20;44.50
3678;DHT22;1855;50.934;6.958;2023-05-07T12:05:53;24.10;45.40
3678;DHT22;1855;50.934;6.958;2023-05-07T12:08:22;24.00;46.10
3678;DHT22;1855;50.934;6.958;2023-05-07T12:10:50;23.90;45.30
3678;DHT22;1855;50.934;6.958;2023-05-07T12:13:17;23.80;46.30
3678;DHT22;1855;50.934;6.958;2023-05-07T12:15:44;23.80;46.90
3678;DHT22;1855;50.934;6.958;2023-05-07T12:18:11;23.90;47.10
3678;DHT22;1855;50.934;6.958;2023-05-07T12:20:39;23.90;47.80
3678;DHT22;1855;50.934;6.958;2023-05-07T12:23:06;23.80;47.70
3678;DHT22;1855;50.934;6.958;2023-05-07T12:25:36;23.90;47.50
3678;DHT22;1855;50.934;6.958;2023-05-07T12:28:03;23.90;48.30
3678;DHT22;1855;50.934;6.958;2023-05-07T12:30:30;24.00;48.20
3678;DHT22;1855;50.934;6.958;2023-05-07T12:32:57;23.90;47.90
3678;DHT22;1855;50.934;6.958;2023-05-07T12:35:27;23.80;48.60
3678;DHT22;1855;50.934;6.958;2023-05-07T12:37:55;23.80;49.40
3678;DHT22;1855;50.934;6.958;2023-05-07T12:40:22;23.90;48.30
3678;DHT22;1855;50.934;6.958;2023-05-07T12:42:53;23.80;48.20
3678;DHT22;1855;50.934;6.958;2023-05-07T12:45:21;23.60;49.10
3678;DHT22;1855;50.934;6.958;2023-05-07T12:47:48;23.50;50.80
3678;DHT22;1855;50.934;6.958;2023-05-07T12:50:15;23.40;52.10
3678;DHT22;1855;50.934;6.958;2023-05-07T12:52:43;23.20;53.10
3678;DHT22;1855;50.934;6.958;2023-05-07T12:55:13;23.10;53.00
3678;DHT22;1855;50.934;6.958;2023-05-07T12:57:42;23.00;55.30
3678;DHT22;1855;50.934;6.958;2023-05-07T13:00:11;22.80;57.10
3678;DHT22;1855;50.934;6.958;2023-05-07T13:02:39;22.60;59.80
3678;DHT22;1855;50.934;6.958;2023-05-07T13:05:06;22.40;64.60
3678;DHT22;1855;50.934;6.958;2023-05-07T13:07:33;22.10;67.60
3678;DHT22;1855;50.934;6.958;2023-05-07T13:10:01;21.80;69.90
3678;DHT22;1855;50.934;6.958;2023-05-07T13:12:28;21.70;67.50
3678;DHT22;1855;50.934;6.958;2023-05-07T13:14:55;21.70;69.20
3678;DHT22;1855;50.934;6.958;2023-05-07T13:17:23;21.70;71.50
3678;DHT22;1855;50.934;6.958;2023-05-07T13:19:49;21.80;70.50
3678;DHT22;1855;50.934;6.958;2023-05-07T13:22:16;21.90;67.80
3678;DHT22;1855;50.934;6.958;2023-05-07T13:24:43;21.90;66.30
3678;DHT22;1855;50.934;6.958;2023-05-07T13:27:09;21.90;65.30
3678;DHT22;1855;50.934;6.958;2023-05-07T13:29:36;22.00;64.60
3678;DHT22;1855;50.934;6.958;2023-05-07T13:32:03;22.10;60.70
3678;DHT22;1855;50.934;6.958;2023-05-07T13:34:31;22.30;60.00
3678;DHT22;1855;50.934;6.958;2023-05-07T13:36:58;22.50;60.00
3678;DHT22;1855;50.934;6.958;2023-05-07T13:39:25;22.70;56.60
3678;DHT22;1855;50.934;6.958;2023-05-07T13:41:52;22.90;57.10
3678;DHT22;1855;50.934;6.958;2023-05-07T13:44:19;22.90;55.70
3678;DHT22;1855;50.934;6.958;2023-05-07T13:46:46;23.00;55.10
3678;DHT22;1855;50.934;6.958;2023-05-07T13:49:12;23.00;56.80
3678;DHT22;1855;50.934;6.958;2023-05-07T13:51:40;23.10;58.70
3678;DHT22;1855;50.934;6.958;2023-05-07T13:54:07;23.10;53.00
3678;DHT22;1855;50.934;6.958;2023-05-07T13:56:34;23.20;53.00
3678;DHT22;1855;50.934;6.958;2023-05-07T13:59:00;23.10;53.70
3678;DHT22;1855;50.934;6.958;2023-05-07T14:01:27;23.20;53.70
3678;DHT22;1855;50.934;6.958;2023-05-07T14:03:55;23.30;51.30
3678;DHT22;1855;50.934;6.958;2023-05-07T14:06:22;23.50;52.30
3678;DHT22;1855;50.934;6.958;2023-05-07T14:08:50;23.60;51.90
3678;DHT22;1855;50.934;6.958;2023-05-07T14:11:17;23.60;53.70
3678;DHT22;1855;50.934;6.958;2023-05-07T14:13:43;23.80;54.70
3678;DHT22;1855;50.934;6.958;2023-05-07T14:16:10;23.70;52.50
3678;DHT22;1855;50.934;6.958;2023-05-07T14:18:37;23.60;52.70
3678;DHT22;1855;50.934;6.958;2023-05-07T14:21:04;23.50;54.10
3678;DHT22;1855;50.934;6.958;2023-05-07T14:23:31;23.30;56.00
3678;DHT22;1855;50.934;6.958;2023-05-07T14:25:59;23.10;57.30
3678;DHT22;1855;50.934;6.958;2023-05-07T14:28:26;22.70;57.30
3678;DHT22;1855;50.934;6.958;2023-05-07T14:30:53;22.40;60.60
3678;DHT22;1855;50.934;6.958;2023-05-07T14:33:20;22.20;62.40
3678;DHT22;1855;50.934;6.958;2023-05-07T14:35:46;22.00;63.80
3678;DHT22;1855;50.934;6.958;2023-05-07T14:38:14;21.90;65.60
3678;DHT22;1855;50.934;6.958;2023-05-07T14:40:41;21.80;66.40
3678;DHT22;1855;50.934;6.958;2023-05-07T14:43:09;21.70;67.00
3678;DHT22;1855;50.934;6.958;2023-05-07T14:45:36;21.70;67.30
3678;DHT22;1855;50.934;6.958;2023-05-07T14:48:04;21.80;68.30
3678;DHT22;1855;50.934;6.958;2023-05-07T14:50:31;21.90;68.40
3678;DHT22;1855;50.934;6.958;2023-05-07T14:52:57;22.10;67.50
3678;DHT22;1855;50.934;6.958;2023-05-07T14:55:25;22.30;66.50
3678;DHT22;1855;50.934;6.958;2023-05-07T14:57:52;22.40;65.50
3678;DHT22;1855;50.934;6.958;2023-05-07T15:00:20;22.40;66.00
3678;DHT22;1855;50.934;6.958;2023-05-07T15:02:47;22.50;67.20
3678;DHT22;1855;50.934;6.958;2023-05-07T15:05:14;22.40;68.30
3678;DHT22;1855;50.934;6.958;2023-05-07T15:07:41;22.30;70.20
3678;DHT22;1855;50.934;6.958;2023-05-07T15:10:08;22.10;73.70
3678;DHT22;1855;50.934;6.958;2023-05-07T15:12:35;22.00;77.40
3678;DHT22;1855;50.934;6.958;2023-05-07T15:15:02;21.80;81.40
3678;DHT22;1855;50.934;6.958;2023-05-07T15:17:31;21.70;81.00
3678;DHT22;1855;50.934;6.958;2023-05-07T15:19:57;21.50;85.10
3678;DHT22;1855;50.934;6.958;2023-05-07T15:22:26;21.30;85.70
3678;DHT22;1855;50.934;6.958;2023-05-07T15:24:53;21.20;86.80
3678;DHT22;1855;50.934;6.958;2023-05-07T15:27:22;21.10;84.50
3678;DHT22;1855;50.934;6.958;2023-05-07T15:29:49;21.00;84.60
3678;DHT22;1855;50.934;6.958;2023-05-07T15:32:16;21.10;83.20
3678;DHT22;1855;50.934;6.958;2023-05-07T15:34:44;21.20;80.00
3678;DHT22;1855;50.934;6.958;2023-05-07T15:37:11;21.40;79.30
3678;DHT22;1855;50.934;6.958;2023-05-07T15:39:38;21.60;76.30
3678;DHT22;1855;50.934;6.958;2023-05-07T15:42:05;21.90;74.10
3678;DHT22;1855;50.934;6.958;2023-05-07T15:44:31;22.20;73.50
3678;DHT22;1855;50.934;6.958;2023-05-07T15:46:59;22.40;73.60
3678;DHT22;1855;50.934;6.958;2023-05-07T15:49:26;22.60;72.00
3678;DHT22;1855;50.934;6.958;2023-05-07T15:51:54;22.60;72.30
3678;DHT22;1855;50.934;6.958;2023-05-07T15:54:22;22.60;71.90
3678;DHT22;1855;50.934;6.958;2023-05-07T15:56:49;22.70;71.80
3678;DHT22;1855;50.934;6.958;2023-05-07T15:59:16;22.70;71.60
3678;DHT22;1855;50.934;6.958;2023-05-07T16:01:43;22.80;71.40
3678;DHT22;1855;50.934;6.958;2023-05-07T16:04:10;23.00;70.10
3678;DHT22;1855;50.934;6.958;2023-05-07T16:06:37;23.20;69.90
3678;DHT22;1855;50.934;6.958;2023-05-07T16:09:05;23.30;69.10